Startpagina
METAR-TAF:

METAR-TAF

Vliegvelden :

Radom-Sadków

Radom, Polen

breedte: 51-23-21N, lengte: 21-12-49E, hoogte: 186 m

Actueel weer

Dit bericht is 33 minuten geleden gemaakt, om 10:00 UTC
Wind 12 kt uit het westen
Temperatuur 5°C
Vochtigheid 75%
Druk 1023 hPa
Zicht 10 km of meer
Gebroken wolken op 2300 ft

METAR: EPRA 191000Z 27012KT 9999 BKN023 05/01 Q1023

Tijdstip: 11:33 (10:33 UTC)

Verwachting

Dit bericht is 2 uur en het 3 minuten geleden gemaakt, om 08:30 UTC
Verwachting geldig van 19 om 09 UTC tot 19 om 18 UTC
Wind 12 kt uit het westen
Zicht 10 km of meer
Verspreide wolken op 2500 ft
Kans 30% :
Tijdelijke
van 19 om 12 UTC tot 19 om 16 UTC
Gebroken wolken op 2500 ft, Stapelwolken.
lichte regenbuien

TAF: EPRA 190830Z 1909/1918 27012KT 9999 SCT025 PROB30 TEMPO 1912/1916 -SHRA BKN025TCU

Waarnemingen en weersverwachtingen van meer dan 4000 vliegvelden (METAR en TAF).

De beschikbare stations zijn de gele en rode punten op de kaart.

Ga met uw muis naar het station om de naam te zien.

Klik dan om waarnemingen en weersverwachtingen te zien.

kaart wijzigen: klik op de groene knoppen met een zwart kruis om in te zoomen, op de groene knop met een streepje om uit te zoomen of op de groene pijlen voor aangrenzende kaarten.


METAR-TAF: